Huvudsida
METAR-TAF:

METAR-TAF

Flygplatser :

London City Airport

London, England

latitud: 51-30N, longitud: 000-03E, höjd: 5 m

Aktuellt väderrapport

Denna rapport gjordes för 35 minuter sedan, klockan 09:20 UTC
Vind 7 kt varierande vindriktning i byarna ända upp till 22 kt
Temperatur 18°C
Fuktighet 64%
Tryck 1012 hPa
Sikt 10 km eller mer

METAR: EGLC 230920Z AUTO VRB07G22KT 9999 NCD 18/11 Q1012

Tid: 10:55 (09:55 UTC)

Väderprognos

Denna rapport gjordes för 1 timme och 53 minuter sedan, klockan 08:02 UTC
Prognos gäller från 23 kl. 09 UTC till 23 kl. 18 UTC
Vind 10 kt från sydväst
Sikt 10 km eller mer
Spridda moln på en höjd av 3000 ft
Sannolikhet 30% :
Temporärt
från 23 kl. 12 UTC till 23 kl. 17 UTC
Sikt: 7000 m
regnskurar
Temporärt
från 23 kl. 17 UTC till 23 kl. 18 UTC
Sikt: 6000 m
regn

TAF: EGLC 230802Z 2309/2318 23010KT 9999 SCT030 PROB30 TEMPO 2312/2317 7000 SHRA TEMPO 2317/2318 6000 RA

Aktuella väderrapporter och prognoser från 4000 flygplatser (METAR- och TAF-rapporter).

De tillgängliga stationerna syns som gula och röda prickar på kartan.

För musen över prickarna för att se namnen på stationerna.

Klicka sedan för att få väderrapporter och prognoser.

För att ändra kartan: Klicka på de gröna knapparna med ett svart kors på för att zooma in; den gröna knappen med ett streck på för att zooma ut; eller på de gröna pilarna för angränsande kartor.


METAR-TAF: